Time;durP1;ratioP1;P1;durP2;ratioP2;P2;SDS_P1;SDS_P2;PMS_P1;PMS_P2;Temp;Humidity;BMP_temperature;BMP_pressure;BME280_temperature;BME280_humidity;BME280_pressure;Samples;Min_cycle;Max_cycle;Signal;HPM_P1;HPM_P2
2021/01/24 00:01:24;;;;;;;10.60;7.50;;;;;;;;;;5038552;28;20029;-84
2021/01/24 00:03:50;;;;;;;12.68;8.13;;;;;;;;;;5081897;28;20330;-83
2021/01/24 00:06:16;;;;;;;10.15;7.90;;;;;;;;;;5082175;28;20021;-83
2021/01/24 00:08:45;;;;;;;11.48;7.78;;;;;;;;;;5082304;28;20057;-84
2021/01/24 00:11:11;;;;;;;10.40;7.45;;;;;;;;;;5082599;28;20167;-84
2021/01/24 00:13:37;;;;;;;11.65;7.68;;;;;;;;;;5082378;28;20075;-83
2021/01/24 00:16:04;;;;;;;13.95;8.07;;;;;;;;;;5082680;28;20390;-85
2021/01/24 00:18:30;;;;;;;11.40;7.57;;;;;;;;;;5081942;28;20086;-85
2021/01/24 00:20:56;;;;;;;9.73;7.35;;;;;;;;;;5081832;28;20428;-84
2021/01/24 00:23:22;;;;;;;10.23;7.57;;;;;;;;;;5013871;28;20038;-84
2021/01/24 00:25:48;;;;;;;10.88;7.45;;;;;;;;;;5081950;28;20038;-84
2021/01/24 00:28:20;;;;;;;11.23;7.40;;;;;;;;;;5082190;28;20030;-84
2021/01/24 00:30:46;;;;;;;11.40;7.38;;;;;;;;;;5078127;28;20038;-83
2021/01/24 00:33:12;;;;;;;11.90;8.02;;;;;;;;;;5078541;28;20054;-83
2021/01/24 00:35:39;;;;;;;10.23;7.70;;;;;;;;;;5077451;28;20024;-83
2021/01/24 00:38:05;;;;;;;14.35;8.27;;;;;;;;;;5095659;28;20028;-85
2021/01/24 00:40:31;;;;;;;12.45;8.05;;;;;;;;;;5077715;28;20030;-82
2021/01/24 00:42:57;;;;;;;12.73;8.07;;;;;;;;;;5077656;28;20032;-84
2021/01/24 00:45:23;;;;;;;11.00;7.50;;;;;;;;;;5096256;28;20031;-84
2021/01/24 00:47:49;;;;;;;9.52;7.13;;;;;;;;;;5079613;28;20354;-84
2021/01/24 00:50:15;;;;;;;8.75;7.20;;;;;;;;;;5080338;28;20081;-83
2021/01/24 00:52:41;;;;;;;11.23;8.18;;;;;;;;;;5081589;28;20075;-84
2021/01/24 00:55:08;;;;;;;10.65;7.10;;;;;;;;;;5099650;28;20032;-84
2021/01/24 00:57:34;;;;;;;10.00;7.35;;;;;;;;;;5089723;28;20028;-81
2021/01/24 01:00:00;;;;;;;9.85;7.38;;;;;;;;;;5106559;28;20088;-81
2021/01/24 01:02:26;;;;;;;11.68;7.70;;;;;;;;;;5088807;28;20103;-82
2021/01/24 01:04:52;;;;;;;10.20;6.95;;;;;;;;;;5103721;28;20111;-82
2021/01/24 01:07:18;;;;;;;9.98;7.65;;;;;;;;;;5101748;28;20030;-83
2021/01/24 01:09:44;;;;;;;9.75;7.20;;;;;;;;;;5084358;28;20068;-85
2021/01/24 01:12:10;;;;;;;8.75;6.85;;;;;;;;;;5083579;28;20036;-82
2021/01/24 01:14:37;;;;;;;11.00;7.05;;;;;;;;;;5087489;28;20028;-83
2021/01/24 01:17:03;;;;;;;10.27;7.38;;;;;;;;;;5085713;28;20035;-83
2021/01/24 01:19:29;;;;;;;10.98;7.95;;;;;;;;;;5088262;28;20032;-84
2021/01/24 01:21:55;;;;;;;8.27;6.88;;;;;;;;;;5090726;28;20028;-82
2021/01/24 01:24:21;;;;;;;9.13;6.90;;;;;;;;;;5093088;28;20044;-83
2021/01/24 01:26:47;;;;;;;8.32;6.75;;;;;;;;;;5108179;28;20039;-83
2021/01/24 01:29:13;;;;;;;9.30;7.20;;;;;;;;;;5107759;28;20032;-82
2021/01/24 01:31:39;;;;;;;8.02;6.75;;;;;;;;;;5081259;28;20040;-83
2021/01/24 01:34:05;;;;;;;10.45;8.00;;;;;;;;;;5082043;28;20055;-83
2021/01/24 01:36:33;;;;;;;10.13;6.28;;;;;;;;;;5097996;28;20032;-85
2021/01/24 01:38:59;;;;;;;7.97;6.50;;;;;;;;;;5086864;28;20032;-84
2021/01/24 01:41:32;;;;;;;9.60;7.03;;;;;;;;;;5061545;28;20321;-84
2021/01/24 01:43:58;;;;;;;12.90;6.95;;;;;;;;;;5061776;28;20040;-84
2021/01/24 01:46:27;;;;;;;7.38;6.38;;;;;;;;;;5061600;28;20355;-84
2021/01/24 01:48:53;;;;;;;8.88;6.63;;;;;;;;;;5061234;28;20074;-84
2021/01/24 01:51:19;;;;;;;9.32;6.97;;;;;;;;;;5061212;28;20114;-84
2021/01/24 01:53:46;;;;;;;9.23;6.85;;;;;;;;;;5061505;28;20028;-83
2021/01/24 01:56:12;;;;;;;8.32;6.70;;;;;;;;;;5077117;28;20431;-85
2021/01/24 01:58:39;;;;;;;9.18;6.43;;;;;;;;;;5080882;28;20028;-84
2021/01/24 02:01:07;;;;;;;8.35;5.78;;;;;;;;;;5072281;28;20035;-83
2021/01/24 02:03:46;;;;;;;9.93;6.90;;;;;;;;;;5078706;28;20036;-84
2021/01/24 02:06:16;;;;;;;11.17;7.77;;;;;;;;;;5095193;28;20039;-83
2021/01/24 02:08:45;;;;;;;9.32;6.82;;;;;;;;;;5078589;28;20352;-83
2021/01/24 02:11:24;;;;;;;8.15;7.03;;;;;;;;;;5094675;28;20474;-85
2021/01/24 02:14:06;;;;;;;9.20;6.53;;;;;;;;;;5095263;28;20029;-84
2021/01/24 02:16:34;;;;;;;7.38;6.50;;;;;;;;;;5081302;28;20139;-84
2021/01/24 02:19:02;;;;;;;8.27;6.65;;;;;;;;;;5081202;28;20028;-84
2021/01/24 02:21:29;;;;;;;9.35;6.97;;;;;;;;;;5098427;28;20126;-84
2021/01/24 02:23:56;;;;;;;10.30;7.50;;;;;;;;;;5071696;28;20033;-84
2021/01/24 02:26:41;;;;;;;8.60;6.40;;;;;;;;;;5098954;28;20054;-84
2021/01/24 02:29:29;;;;;;;7.68;5.82;;;;;;;;;;5080811;28;20032;-85
2021/01/24 02:31:59;;;;;;;7.63;6.00;;;;;;;;;;5080885;28;20044;-86
2021/01/24 02:34:29;;;;;;;8.27;5.85;;;;;;;;;;5081028;28;20039;-85
2021/01/24 02:36:56;;;;;;;7.20;6.18;;;;;;;;;;5081060;28;20077;-85
2021/01/24 02:39:22;;;;;;;9.82;6.88;;;;;;;;;;5080870;28;20070;-85
2021/01/24 02:41:48;;;;;;;10.13;7.35;;;;;;;;;;5080170;28;20035;-85
2021/01/24 02:44:14;;;;;;;7.70;6.10;;;;;;;;;;5080689;28;20020;-84
2021/01/24 02:46:41;;;;;;;9.65;6.75;;;;;;;;;;5080887;28;20028;-84
2021/01/24 02:49:08;;;;;;;9.65;7.03;;;;;;;;;;5098625;28;20027;-85
2021/01/24 02:51:34;;;;;;;8.70;6.57;;;;;;;;;;5081149;28;20445;-85
2021/01/24 02:54:00;;;;;;;8.77;6.45;;;;;;;;;;5098668;28;20020;-85
2021/01/24 02:56:26;;;;;;;7.65;6.10;;;;;;;;;;5098246;28;20051;-86
2021/01/24 02:58:53;;;;;;;7.82;6.63;;;;;;;;;;5098107;28;20027;-85
2021/01/24 03:01:21;;;;;;;8.27;6.30;;;;;;;;;;5080025;28;20063;-85
2021/01/24 03:03:47;;;;;;;7.45;5.68;;;;;;;;;;5080437;28;20024;-85
2021/01/24 03:06:13;;;;;;;11.05;6.68;;;;;;;;;;5080606;28;20032;-86
2021/01/24 03:08:40;;;;;;;10.45;6.75;;;;;;;;;;5080083;28;20118;-85
2021/01/24 03:11:08;;;;;;;8.48;6.53;;;;;;;;;;5080602;28;20032;-85
2021/01/24 03:13:37;;;;;;;7.28;6.13;;;;;;;;;;5080234;28;20434;-85
2021/01/24 03:16:03;;;;;;;;;;;;;;;;;;5080394;28;20019;-84
2021/01/24 03:18:30;;;;;;;12.68;6.95;;;;;;;;;;5097904;28;19911;-85
2021/01/24 03:20:56;;;;;;;7.20;6.45;;;;;;;;;;5080369;28;20043;-84
2021/01/24 03:23:23;;;;;;;9.65;7.30;;;;;;;;;;5079629;28;20435;-85
2021/01/24 03:25:49;;;;;;;8.50;6.55;;;;;;;;;;5079696;28;20081;-84
2021/01/24 03:28:16;;;;;;;9.23;6.65;;;;;;;;;;5080160;28;20077;-84
2021/01/24 03:30:42;;;;;;;9.88;8.00;;;;;;;;;;5098068;28;20048;-85
2021/01/24 03:33:08;;;;;;;8.48;6.95;;;;;;;;;;5098637;28;20060;-84
2021/01/24 03:35:34;;;;;;;8.65;6.32;;;;;;;;;;5079829;28;20335;-84
2021/01/24 03:38:01;;;;;;;7.88;6.38;;;;;;;;;;5080027;28;20024;-84
2021/01/24 03:40:27;;;;;;;8.57;7.28;;;;;;;;;;5098146;28;20066;-83
2021/01/24 03:42:53;;;;;;;12.48;7.93;;;;;;;;;;5097817;28;20032;-84
2021/01/24 03:45:19;;;;;;;8.60;7.63;;;;;;;;;;5079796;28;20031;-84
2021/01/24 03:47:45;;;;;;;11.88;8.20;;;;;;;;;;5098289;28;20027;-86
2021/01/24 03:50:12;;;;;;;9.05;7.22;;;;;;;;;;5080597;28;20351;-84
2021/01/24 03:52:38;;;;;;;11.25;8.00;;;;;;;;;;5098217;28;20074;-84
2021/01/24 03:55:04;;;;;;;9.20;7.38;;;;;;;;;;5079637;28;20085;-86
2021/01/24 03:57:30;;;;;;;12.02;7.57;;;;;;;;;;5096801;28;20064;-84
2021/01/24 03:59:56;;;;;;;10.32;8.20;;;;;;;;;;5079724;28;20027;-84
2021/01/24 04:02:22;;;;;;;9.32;7.88;;;;;;;;;;5080439;28;20032;-84
2021/01/24 04:04:49;;;;;;;10.95;7.60;;;;;;;;;;5079966;28;20354;-84
2021/01/24 04:07:15;;;;;;;10.75;8.30;;;;;;;;;;5099982;28;20032;-84
2021/01/24 04:09:42;;;;;;;8.20;6.88;;;;;;;;;;5082545;28;20135;-85
2021/01/24 04:12:08;;;;;;;9.27;7.75;;;;;;;;;;5083486;28;20051;-84
2021/01/24 04:14:35;;;;;;;9.95;7.32;;;;;;;;;;5084974;28;20016;-84
2021/01/24 04:17:01;;;;;;;11.82;8.55;;;;;;;;;;5097191;28;20024;-85
2021/01/24 04:19:27;;;;;;;8.55;7.65;;;;;;;;;;5097173;28;20101;-85
2021/01/24 04:21:53;;;;;;;12.80;8.68;;;;;;;;;;5098005;28;20020;-86
2021/01/24 04:24:19;;;;;;;9.95;8.32;;;;;;;;;;5109510;28;20042;-84
2021/01/24 04:26:45;;;;;;;10.05;8.90;;;;;;;;;;5107556;28;20037;-86
2021/01/24 04:29:11;;;;;;;10.65;8.75;;;;;;;;;;5096951;28;20032;-85
2021/01/24 04:31:37;;;;;;;10.77;8.65;;;;;;;;;;5095001;28;20044;-87
2021/01/24 04:34:03;;;;;;;10.90;9.35;;;;;;;;;;5105722;28;20024;-86
2021/01/24 04:36:29;;;;;;;10.95;9.18;;;;;;;;;;5104813;28;20016;-87
2021/01/24 04:38:56;;;;;;;10.00;8.13;;;;;;;;;;5108434;28;20024;-84
2021/01/24 04:41:22;;;;;;;9.40;8.35;;;;;;;;;;5089830;28;20053;-89
2021/01/24 04:43:48;;;;;;;9.02;7.18;;;;;;;;;;5097650;28;20029;-85
2021/01/24 04:46:14;;;;;;;8.50;7.55;;;;;;;;;;5054659;28;20037;-85
2021/01/24 04:48:41;;;;;;;8.80;7.90;;;;;;;;;;5046179;28;20032;-83
2021/01/24 04:51:07;;;;;;;7.70;6.95;;;;;;;;;;5098174;28;20055;-82
2021/01/24 04:53:34;;;;;;;7.53;6.55;;;;;;;;;;5097849;28;20101;-83
2021/01/24 04:56:01;;;;;;;7.93;7.13;;;;;;;;;;5095450;28;20058;-85
2021/01/24 04:58:28;;;;;;;8.38;7.00;;;;;;;;;;5083505;28;20078;-83
2021/01/24 05:00:55;;;;;;;9.50;8.43;;;;;;;;;;5101522;28;20024;-86
2021/01/24 05:03:21;;;;;;;7.95;6.68;;;;;;;;;;5085014;28;20296;-85
2021/01/24 05:05:47;;;;;;;7.47;6.65;;;;;;;;;;5082793;28;20461;-82
2021/01/24 05:08:15;;;;;;;7.18;6.45;;;;;;;;;;5017135;28;20033;-83
2021/01/24 05:10:45;;;;;;;7.97;5.93;;;;;;;;;;5014773;28;20032;-85
2021/01/24 05:13:11;;;;;;;8.38;5.82;;;;;;;;;;5066307;28;20435;-83
2021/01/24 05:15:37;;;;;;;6.03;5.43;;;;;;;;;;5069248;28;20033;-85
2021/01/24 05:18:03;;;;;;;6.63;5.68;;;;;;;;;;5084899;28;20030;-85
2021/01/24 05:20:30;;;;;;;5.90;5.30;;;;;;;;;;5016416;28;20030;-86
2021/01/24 05:22:57;;;;;;;5.30;4.80;;;;;;;;;;5016413;28;20030;-84
2021/01/24 05:25:24;;;;;;;6.00;5.40;;;;;;;;;;5084436;28;20069;-85
2021/01/24 05:27:51;;;;;;;5.45;4.95;;;;;;;;;;5084469;28;20048;-84
2021/01/24 05:30:21;;;;;;;5.28;4.78;;;;;;;;;;5084341;28;20128;-83
2021/01/24 05:32:47;;;;;;;4.90;4.43;;;;;;;;;;5084647;28;20128;-82
2021/01/24 05:35:14;;;;;;;4.47;4.07;;;;;;;;;;5015855;28;20062;-82
2021/01/24 05:37:40;;;;;;;5.45;4.95;;;;;;;;;;5084055;28;20037;-84
2021/01/24 05:40:07;;;;;;;5.15;4.65;;;;;;;;;;5084435;28;20033;-83
2021/01/24 05:42:37;;;;;;;4.63;4.22;;;;;;;;;;5084300;28;20045;-84
2021/01/24 05:45:10;;;;;;;5.03;4.53;;;;;;;;;;5015957;28;20021;-85
2021/01/24 05:47:37;;;;;;;4.43;4.03;;;;;;;;;;5084520;28;20033;-84
2021/01/24 05:50:05;;;;;;;4.22;3.83;;;;;;;;;;5015809;28;20024;-83
2021/01/24 05:52:32;;;;;;;4.45;4.05;;;;;;;;;;5015357;28;20030;-83
2021/01/24 05:54:58;;;;;;;5.25;4.25;;;;;;;;;;5075930;28;20024;-84
2021/01/24 05:57:24;;;;;;;4.75;4.20;;;;;;;;;;5097682;28;20043;-83
2021/01/24 06:00:00;;;;;;;5.25;4.07;;;;;;;;;;5095933;28;20351;-83
2021/01/24 06:02:27;;;;;;;4.88;4.40;;;;;;;;;;5080104;28;20038;-83
2021/01/24 06:04:55;;;;;;;4.47;3.92;;;;;;;;;;5084015;28;20040;-83
2021/01/24 06:07:21;;;;;;;5.75;4.82;;;;;;;;;;5083374;28;20029;-83
2021/01/24 06:09:48;;;;;;;4.55;4.13;;;;;;;;;;5084043;28;20041;-82
2021/01/24 06:12:17;;;;;;;4.93;4.40;;;;;;;;;;5063923;28;20326;-82
2021/01/24 06:14:48;;;;;;;4.38;3.97;;;;;;;;;;4994758;28;20034;-82
2021/01/24 06:17:20;;;;;;;4.53;3.78;;;;;;;;;;5004127;28;20113;-83
2021/01/24 06:19:48;;;;;;;5.20;4.40;;;;;;;;;;5078767;28;20028;-81
2021/01/24 06:22:15;;;;;;;5.57;3.97;;;;;;;;;;5023197;28;20026;-82
2021/01/24 06:24:44;;;;;;;4.35;3.95;;;;;;;;;;5006108;28;20056;-82
2021/01/24 06:27:11;;;;;;;4.50;4.10;;;;;;;;;;5097746;28;20081;-83
2021/01/24 06:29:39;;;;;;;4.55;4.15;;;;;;;;;;5072835;28;20055;-81
2021/01/24 06:32:05;;;;;;;4.75;4.30;;;;;;;;;;5090744;28;20434;-83
2021/01/24 06:34:36;;;;;;;4.82;4.43;;;;;;;;;;5064902;28;20044;-81
2021/01/24 06:37:05;;;;;;;4.78;4.32;;;;;;;;;;5014547;28;20030;-82
2021/01/24 06:39:32;;;;;;;4.60;4.20;;;;;;;;;;5014876;28;20041;-82
2021/01/24 06:41:58;;;;;;;4.60;4.18;;;;;;;;;;5083276;28;20057;-82
2021/01/24 06:44:38;;;;;;;4.88;4.30;;;;;;;;;;5015000;28;20109;-82
2021/01/24 06:47:08;;;;;;;4.82;4.35;;;;;;;;;;5043240;28;20039;-81
2021/01/24 06:49:38;;;;;;;5.15;4.65;;;;;;;;;;5054256;28;20431;-82
2021/01/24 06:52:14;;;;;;;6.40;5.70;;;;;;;;;;5077469;28;20040;-83
2021/01/24 06:54:40;;;;;;;5.22;4.53;;;;;;;;;;5077678;28;20020;-83
2021/01/24 06:57:07;;;;;;;5.85;5.25;;;;;;;;;;5059971;28;20352;-83
2021/01/24 06:59:33;;;;;;;5.90;5.30;;;;;;;;;;5059791;28;20024;-81
2021/01/24 07:02:18;;;;;;;7.20;6.50;;;;;;;;;;5077938;28;20085;-83
2021/01/24 07:05:04;;;;;;;6.40;5.78;;;;;;;;;;5060184;28;20021;-83
2021/01/24 07:07:31;;;;;;;7.45;5.88;;;;;;;;;;5060319;28;20390;-84
2021/01/24 07:09:57;;;;;;;7.55;6.10;;;;;;;;;;5059889;28;20121;-83
2021/01/24 07:12:37;;;;;;;8.30;6.97;;;;;;;;;;5075461;28;20036;-85
2021/01/24 07:15:19;;;;;;;6.75;6.05;;;;;;;;;;5064701;28;20403;-84
2021/01/24 07:17:53;;;;;;;8.73;7.60;;;;;;;;;;5070867;28;20491;-85
2021/01/24 07:20:20;;;;;;;8.15;7.35;;;;;;;;;;5074944;28;20047;-83
2021/01/24 07:22:46;;;;;;;8.60;7.70;;;;;;;;;;5074353;28;20030;-84
2021/01/24 07:25:12;;;;;;;10.43;9.15;;;;;;;;;;5091220;28;20059;-82
2021/01/24 07:27:39;;;;;;;8.88;7.97;;;;;;;;;;5071974;28;20036;-82
2021/01/24 07:30:05;;;;;;;9.23;8.13;;;;;;;;;;5089788;28;20024;-84
2021/01/24 07:32:32;;;;;;;10.35;8.45;;;;;;;;;;5062437;28;20066;-83
2021/01/24 07:34:58;;;;;;;11.85;7.65;;;;;;;;;;5070681;28;20041;-86
2021/01/24 07:37:24;;;;;;;9.27;8.20;;;;;;;;;;5067896;28;20043;-84
2021/01/24 07:39:51;;;;;;;10.57;8.65;;;;;;;;;;5074379;28;20025;-84
2021/01/24 07:42:17;;;;;;;10.68;8.70;;;;;;;;;;5041052;28;20361;-86
2021/01/24 07:44:44;;;;;;;10.30;8.85;;;;;;;;;;5044865;28;20024;-84
2021/01/24 07:47:11;;;;;;;11.73;8.80;;;;;;;;;;5069056;28;20092;-86
2021/01/24 07:49:37;;;;;;;10.90;8.95;;;;;;;;;;5085238;28;20086;-84
2021/01/24 07:52:06;;;;;;;9.80;8.30;;;;;;;;;;5091281;28;20028;-84
2021/01/24 07:54:32;;;;;;;;;;;;;;;;;;5092950;28;20032;-85
2021/01/24 07:56:58;;;;;;;9.55;8.00;;;;;;;;;;5071361;28;19923;-84
2021/01/24 07:59:25;;;;;;;11.05;9.32;;;;;;;;;;5070262;28;20138;-84
2021/01/24 08:01:52;;;;;;;10.60;9.43;;;;;;;;;;5093938;28;20074;-83
2021/01/24 08:04:22;;;;;;;11.75;9.38;;;;;;;;;;5074959;28;20077;-81
2021/01/24 08:06:49;;;;;;;12.80;10.88;;;;;;;;;;5094288;28;20028;-81
2021/01/24 08:09:16;;;;;;;9.98;8.13;;;;;;;;;;5079467;28;20024;-83
2021/01/24 08:11:42;;;;;;;14.27;9.52;;;;;;;;;;5091795;28;20029;-84
2021/01/24 08:14:09;;;;;;;13.35;10.23;;;;;;;;;;5073063;28;20027;-85
2021/01/24 08:16:40;;;;;;;11.40;8.93;;;;;;;;;;5073671;28;20028;-84
2021/01/24 08:19:07;;;;;;;9.75;8.75;;;;;;;;;;5089765;28;20023;-84
2021/01/24 08:21:33;;;;;;;12.98;9.30;;;;;;;;;;5092463;28;20090;-82
2021/01/24 08:23:59;;;;;;;12.07;9.80;;;;;;;;;;5075326;28;20032;-82
2021/01/24 08:26:25;;;;;;;12.65;8.88;;;;;;;;;;5069799;28;20029;-83
2021/01/24 08:28:52;;;;;;;12.65;9.32;;;;;;;;;;5074197;28;20028;-81
2021/01/24 08:31:21;;;;;;;12.45;8.75;;;;;;;;;;5074501;28;20077;-82
2021/01/24 08:33:48;;;;;;;12.95;9.40;;;;;;;;;;5073182;28;20438;-83
2021/01/24 08:36:15;;;;;;;13.52;8.38;;;;;;;;;;5076830;28;20028;-83
2021/01/24 08:38:42;;;;;;;13.32;9.05;;;;;;;;;;5090338;28;20054;-83
2021/01/24 08:41:09;;;;;;;14.20;9.63;;;;;;;;;;5088771;28;20020;-83
2021/01/24 08:43:35;;;;;;;13.52;9.15;;;;;;;;;;5076379;28;20040;-85
2021/01/24 08:46:20;;;;;;;11.50;8.45;;;;;;;;;;5092820;28;20035;-83
2021/01/24 08:48:57;;;;;;;14.38;9.75;;;;;;;;;;5092148;28;20020;-85
2021/01/24 08:51:24;;;;;;;14.43;8.43;;;;;;;;;;5070932;28;20040;-83
2021/01/24 08:53:50;;;;;;;12.95;8.65;;;;;;;;;;5072712;28;20027;-83
2021/01/24 08:56:22;;;;;;;12.50;9.32;;;;;;;;;;5074786;28;20039;-84
2021/01/24 08:58:48;;;;;;;16.88;9.35;;;;;;;;;;5070769;28;20029;-83
2021/01/24 09:01:14;;;;;;;12.32;9.23;;;;;;;;;;5088702;28;20028;-84
2021/01/24 09:03:41;;;;;;;14.65;9.10;;;;;;;;;;5088531;28;20029;-83
2021/01/24 09:06:16;;;;;;;11.90;8.70;;;;;;;;;;5067561;28;20052;-86
2021/01/24 09:08:46;;;;;;;12.52;9.32;;;;;;;;;;5068747;28;20055;-82
2021/01/24 09:11:13;;;;;;;14.07;9.48;;;;;;;;;;5076043;28;20032;-84
2021/01/24 09:13:39;;;;;;;13.43;10.02;;;;;;;;;;5076193;28;20077;-83
2021/01/24 09:16:06;;;;;;;11.95;9.27;;;;;;;;;;5064048;28;20027;-84
2021/01/24 09:18:32;;;;;;;12.77;8.30;;;;;;;;;;5060815;28;20068;-84
2021/01/24 09:20:58;;;;;;;14.88;9.52;;;;;;;;;;5075811;28;20043;-84
2021/01/24 09:23:24;;;;;;;17.00;11.55;;;;;;;;;;5074172;28;20064;-84
2021/01/24 09:25:50;;;;;;;17.83;10.38;;;;;;;;;;5072766;28;20024;-84
2021/01/24 09:28:16;;;;;;;11.65;9.52;;;;;;;;;;5056566;28;20046;-83
2021/01/24 09:30:42;;;;;;;13.68;9.27;;;;;;;;;;5070797;28;20039;-83
2021/01/24 09:33:09;;;;;;;14.98;9.38;;;;;;;;;;5075749;28;20419;-84
2021/01/24 09:35:35;;;;;;;16.70;11.30;;;;;;;;;;5079747;28;20028;-81
2021/01/24 09:38:01;;;;;;;15.88;10.32;;;;;;;;;;5096235;28;20043;-84
2021/01/24 09:40:28;;;;;;;14.68;10.90;;;;;;;;;;5097341;28;20042;-84
2021/01/24 09:42:54;;;;;;;13.13;10.55;;;;;;;;;;5080087;28;20142;-85
2021/01/24 09:45:21;;;;;;;15.27;9.75;;;;;;;;;;5088043;28;20030;-81
2021/01/24 09:47:48;;;;;;;16.15;11.15;;;;;;;;;;5096536;28;20034;-83
2021/01/24 09:50:14;;;;;;;15.38;10.57;;;;;;;;;;5068835;28;20023;-83
2021/01/24 09:52:41;;;;;;;17.98;10.43;;;;;;;;;;5062433;28;20039;-83
2021/01/24 09:55:08;;;;;;;17.35;9.85;;;;;;;;;;5047259;28;20435;-83
2021/01/24 09:57:36;;;;;;;13.60;9.45;;;;;;;;;;5078463;28;20119;-82
2021/01/24 10:00:03;;;;;;;13.20;9.48;;;;;;;;;;5096378;28;20039;-85
2021/01/24 10:02:29;;;;;;;15.93;10.07;;;;;;;;;;5096332;28;20416;-85
2021/01/24 10:04:55;;;;;;;14.60;8.20;;;;;;;;;;5080063;28;20035;-86
2021/01/24 10:07:21;;;;;;;13.52;9.38;;;;;;;;;;5098340;28;20024;-82
2021/01/24 10:09:47;;;;;;;14.77;9.15;;;;;;;;;;5080694;28;20043;-82
2021/01/24 10:12:14;;;;;;;11.00;8.00;;;;;;;;;;5078027;28;20074;-84
2021/01/24 10:14:40;;;;;;;12.52;8.90;;;;;;;;;;5076027;28;20028;-84
2021/01/24 10:17:06;;;;;;;14.77;9.70;;;;;;;;;;5015100;28;20345;-82
2021/01/24 10:19:32;;;;;;;13.75;9.25;;;;;;;;;;5037955;28;20024;-82
2021/01/24 10:21:59;;;;;;;11.93;7.72;;;;;;;;;;5067156;28;20349;-83
2021/01/24 10:24:26;;;;;;;8.07;6.82;;;;;;;;;;5079920;28;20083;-83
2021/01/24 10:26:52;;;;;;;11.10;7.80;;;;;;;;;;5057270;28;20091;-83
2021/01/24 10:29:19;;;;;;;15.70;9.63;;;;;;;;;;5080805;28;20024;-82
2021/01/24 10:31:45;;;;;;;12.35;7.30;;;;;;;;;;5080046;28;20044;-83
2021/01/24 10:34:11;;;;;;;10.10;7.45;;;;;;;;;;5080468;28;20039;-83
2021/01/24 10:36:37;;;;;;;10.82;7.88;;;;;;;;;;5098350;28;20054;-84
2021/01/24 10:39:03;;;;;;;9.35;7.18;;;;;;;;;;5080555;28;20391;-84
2021/01/24 10:41:32;;;;;;;11.38;7.38;;;;;;;;;;5079034;28;20028;-84
2021/01/24 10:43:59;;;;;;;11.50;7.60;;;;;;;;;;5095323;28;20028;-84
2021/01/24 10:46:25;;;;;;;9.15;7.25;;;;;;;;;;5076196;28;20030;-83
2021/01/24 10:48:51;;;;;;;8.85;7.53;;;;;;;;;;5095045;28;20086;-84
2021/01/24 10:51:17;;;;;;;10.07;6.80;;;;;;;;;;5079392;28;20040;-83
2021/01/24 10:53:43;;;;;;;14.05;7.78;;;;;;;;;;5097813;28;20028;-83
2021/01/24 10:56:09;;;;;;;14.27;7.47;;;;;;;;;;5080488;28;20050;-83
2021/01/24 10:58:35;;;;;;;10.85;7.15;;;;;;;;;;5075273;28;20025;-84
2021/01/24 11:01:02;;;;;;;10.57;7.88;;;;;;;;;;5075501;28;20466;-83
2021/01/24 11:03:28;;;;;;;9.48;7.15;;;;;;;;;;5081633;28;20036;-83
2021/01/24 11:05:54;;;;;;;9.75;6.90;;;;;;;;;;5081673;28;20043;-84
2021/01/24 11:08:20;;;;;;;10.95;7.50;;;;;;;;;;5082541;28;20020;-82
2021/01/24 11:10:46;;;;;;;10.50;8.02;;;;;;;;;;5081220;28;20058;-84
2021/01/24 11:13:12;;;;;;;10.80;7.45;;;;;;;;;;5081050;28;20019;-83
2021/01/24 11:15:38;;;;;;;7.63;6.78;;;;;;;;;;5079490;28;20020;-84
2021/01/24 11:18:04;;;;;;;9.88;7.35;;;;;;;;;;5097776;28;20121;-83
2021/01/24 11:20:33;;;;;;;7.63;5.97;;;;;;;;;;5097365;28;20032;-83
2021/01/24 11:22:59;;;;;;;13.02;6.47;;;;;;;;;;5083062;28;20012;-83
2021/01/24 11:25:25;;;;;;;8.25;6.28;;;;;;;;;;5096172;28;20028;-84
2021/01/24 11:27:51;;;;;;;7.70;6.05;;;;;;;;;;5039123;28;20033;-84
2021/01/24 11:30:18;;;;;;;12.13;7.82;;;;;;;;;;5081760;28;20400;-83
2021/01/24 11:32:44;;;;;;;9.18;6.05;;;;;;;;;;5014836;28;20026;-84
2021/01/24 11:35:12;;;;;;;10.02;7.07;;;;;;;;;;5014238;28;20030;-83
2021/01/24 11:37:38;;;;;;;7.68;5.95;;;;;;;;;;5082842;28;20051;-83
2021/01/24 11:40:05;;;;;;;10.90;6.15;;;;;;;;;;5013478;28;20034;-83
2021/01/24 11:42:31;;;;;;;11.13;6.75;;;;;;;;;;5013889;28;20030;-83
2021/01/24 11:44:57;;;;;;;9.10;7.28;;;;;;;;;;5080606;28;20021;-83
2021/01/24 11:47:26;;;;;;;9.95;6.90;;;;;;;;;;5082158;28;20040;-83
2021/01/24 11:49:52;;;;;;;11.70;7.10;;;;;;;;;;5081506;28;20030;-83
2021/01/24 11:52:18;;;;;;;11.43;7.80;;;;;;;;;;5079162;28;20041;-84
2021/01/24 11:54:44;;;;;;;8.68;7.03;;;;;;;;;;5061811;28;20095;-83
2021/01/24 11:57:10;;;;;;;8.85;7.20;;;;;;;;;;5068558;28;20043;-83
2021/01/24 11:59:36;;;;;;;10.07;6.70;;;;;;;;;;5096192;28;20081;-82
2021/01/24 12:02:02;;;;;;;8.43;6.65;;;;;;;;;;5096009;28;20039;-84
2021/01/24 12:04:28;;;;;;;10.35;7.10;;;;;;;;;;5085304;28;20341;-83
2021/01/24 12:06:54;;;;;;;9.02;6.85;;;;;;;;;;5081088;28;20052;-85
2021/01/24 12:09:20;;;;;;;8.15;6.90;;;;;;;;;;5081725;28;20045;-83
2021/01/24 12:11:47;;;;;;;8.98;6.40;;;;;;;;;;5081521;28;20077;-83
2021/01/24 12:14:13;;;;;;;7.75;6.38;;;;;;;;;;5062659;28;20041;-84
2021/01/24 12:16:39;;;;;;;6.93;5.45;;;;;;;;;;5049044;28;20035;-84
2021/01/24 12:19:05;;;;;;;11.80;6.95;;;;;;;;;;5038148;28;20030;-83
2021/01/24 12:21:31;;;;;;;11.32;7.05;;;;;;;;;;5060298;28;20080;-83
2021/01/24 12:23:57;;;;;;;8.00;5.78;;;;;;;;;;5052542;28;20024;-83
2021/01/24 12:26:25;;;;;;;6.13;5.50;;;;;;;;;;5076881;28;20036;-83
2021/01/24 12:28:55;;;;;;;6.88;4.97;;;;;;;;;;5075400;28;20343;-83
2021/01/24 12:31:21;;;;;;;6.30;5.55;;;;;;;;;;5083574;28;20075;-85
2021/01/24 12:33:47;;;;;;;6.75;6.05;;;;;;;;;;5075978;28;20024;-85
2021/01/24 12:36:13;;;;;;;7.68;5.70;;;;;;;;;;5093685;28;20027;-83
2021/01/24 12:38:39;;;;;;;7.00;5.65;;;;;;;;;;5077351;28;20020;-83
2021/01/24 12:41:06;;;;;;;7.93;5.95;;;;;;;;;;5076559;28;20044;-83
2021/01/24 12:43:33;;;;;;;7.13;6.43;;;;;;;;;;5075809;28;20034;-83
2021/01/24 12:45:59;;;;;;;8.60;6.53;;;;;;;;;;5095883;28;20105;-85
2021/01/24 12:48:25;;;;;;;11.18;6.60;;;;;;;;;;5094498;28;20028;-83
2021/01/24 12:50:51;;;;;;;7.57;6.65;;;;;;;;;;5093611;28;20040;-84
2021/01/24 12:53:18;;;;;;;8.07;7.00;;;;;;;;;;5075716;28;20016;-82
2021/01/24 12:55:44;;;;;;;9.15;5.88;;;;;;;;;;5085586;28;20023;-83
2021/01/24 12:58:10;;;;;;;9.90;7.28;;;;;;;;;;5088141;28;20031;-82
2021/01/24 13:00:36;;;;;;;9.63;6.45;;;;;;;;;;5072229;28;20498;-83
2021/01/24 13:03:03;;;;;;;8.85;6.88;;;;;;;;;;5070215;28;20031;-83
2021/01/24 13:05:29;;;;;;;6.95;6.28;;;;;;;;;;5073278;28;20042;-83
2021/01/24 13:07:55;;;;;;;7.70;6.18;;;;;;;;;;5077725;28;20016;-85
2021/01/24 13:10:22;;;;;;;7.78;6.97;;;;;;;;;;5079995;28;20123;-83
2021/01/24 13:12:48;;;;;;;8.57;7.35;;;;;;;;;;5074469;28;20032;-82
2021/01/24 13:15:14;;;;;;;8.70;7.60;;;;;;;;;;5090815;28;20028;-84
2021/01/24 13:17:40;;;;;;;8.20;7.40;;;;;;;;;;5079805;28;20051;-83
2021/01/24 13:20:07;;;;;;;8.02;6.90;;;;;;;;;;5089877;28;20028;-82
2021/01/24 13:22:33;;;;;;;10.02;7.03;;;;;;;;;;5076259;28;20020;-84
2021/01/24 13:24:59;;;;;;;8.82;7.50;;;;;;;;;;5066966;28;20034;-84
2021/01/24 13:27:25;;;;;;;9.52;7.85;;;;;;;;;;5108098;28;20027;-82
2021/01/24 13:29:51;;;;;;;9.85;8.45;;;;;;;;;;5118797;28;20040;-83
2021/01/24 13:32:17;;;;;;;11.95;7.47;;;;;;;;;;5099508;28;20035;-83
2021/01/24 13:34:44;;;;;;;12.35;8.10;;;;;;;;;;5081732;28;20047;-84
2021/01/24 13:37:10;;;;;;;9.95;8.23;;;;;;;;;;5081982;28;20024;-83
2021/01/24 13:39:39;;;;;;;10.43;8.38;;;;;;;;;;5081953;28;20055;-84
2021/01/24 13:42:06;;;;;;;10.65;7.85;;;;;;;;;;5101678;28;20035;-84
2021/01/24 13:44:32;;;;;;;13.43;9.63;;;;;;;;;;5102938;28;20374;-84
2021/01/24 13:46:59;;;;;;;11.55;8.95;;;;;;;;;;5102022;28;20024;-85
2021/01/24 13:49:28;;;;;;;14.40;9.98;;;;;;;;;;5100412;28;20310;-83
2021/01/24 13:51:55;;;;;;;11.23;9.60;;;;;;;;;;5099630;28;20096;-85
2021/01/24 13:54:21;;;;;;;13.32;9.40;;;;;;;;;;5118858;28;20020;-83
2021/01/24 13:56:47;;;;;;;10.73;9.27;;;;;;;;;;5100294;28;20342;-84
2021/01/24 13:59:13;;;;;;;14.18;10.18;;;;;;;;;;5084863;28;20399;-84
2021/01/24 14:01:39;;;;;;;13.18;9.50;;;;;;;;;;5081486;28;20028;-83
2021/01/24 14:04:05;;;;;;;12.43;8.35;;;;;;;;;;5088463;28;20026;-83
2021/01/24 14:06:31;;;;;;;11.75;8.63;;;;;;;;;;5090817;28;20043;-84
2021/01/24 14:08:57;;;;;;;12.70;8.88;;;;;;;;;;5084374;28;20910;-85
2021/01/24 14:11:23;;;;;;;19.38;9.02;;;;;;;;;;5094291;28;20032;-82
2021/01/24 14:13:50;;;;;;;11.65;8.70;;;;;;;;;;5076753;28;20028;-82
2021/01/24 14:16:16;;;;;;;11.48;9.07;;;;;;;;;;5078152;28;20024;-83
2021/01/24 14:18:44;;;;;;;10.52;7.95;;;;;;;;;;5099645;28;20031;-81
2021/01/24 14:21:11;;;;;;;11.27;7.57;;;;;;;;;;5080212;28;20067;-83
2021/01/24 14:23:37;;;;;;;10.40;8.57;;;;;;;;;;5079255;28;20340;-82
2021/01/24 14:26:03;;;;;;;9.48;7.15;;;;;;;;;;5041027;28;20022;-83
2021/01/24 14:28:29;;;;;;;10.07;7.70;;;;;;;;;;5026669;28;20089;-84
2021/01/24 14:30:56;;;;;;;14.52;7.57;;;;;;;;;;5083734;28;20240;-83
2021/01/24 14:33:22;;;;;;;12.60;7.45;;;;;;;;;;5072760;28;20143;-83
2021/01/24 14:35:48;;;;;;;8.23;6.53;;;;;;;;;;4996709;28;20034;-82